sensor_id;sensor_type;location;lat;lon;timestamp;pressure;altitude;pressure_sealevel;temperature;humidity
25430;BME280;13360;48.152;-1.788;2024-01-15T00:01:02;101055.25;;;8.69;100.00
25430;BME280;13360;48.152;-1.788;2024-01-15T00:03:28;101043.94;;;8.71;100.00
25430;BME280;13360;48.152;-1.788;2024-01-15T00:05:53;101038.44;;;8.71;100.00
25430;BME280;13360;48.152;-1.788;2024-01-15T00:08:18;101046.72;;;8.71;100.00
25430;BME280;13360;48.152;-1.788;2024-01-15T00:10:44;101040.09;;;8.72;100.00
25430;BME280;13360;48.152;-1.788;2024-01-15T00:13:09;101035.41;;;8.72;100.00
25430;BME280;13360;48.152;-1.788;2024-01-15T00:15:34;101026.59;;;8.70;100.00
25430;BME280;13360;48.152;-1.788;2024-01-15T00:17:59;101031.28;;;8.70;100.00
25430;BME280;13360;48.152;-1.788;2024-01-15T00:20:25;101028.53;;;8.70;100.00
25430;BME280;13360;48.152;-1.788;2024-01-15T00:22:50;101038.44;;;8.71;100.00
25430;BME280;13360;48.152;-1.788;2024-01-15T00:25:15;101026.31;;;8.72;100.00
25430;BME280;13360;48.152;-1.788;2024-01-15T00:27:40;101032.94;;;8.71;100.00
25430;BME280;13360;48.152;-1.788;2024-01-15T00:30:06;101032.94;;;8.71;100.00
25430;BME280;13360;48.152;-1.788;2024-01-15T00:32:31;101032.94;;;8.71;100.00
25430;BME280;13360;48.152;-1.788;2024-01-15T00:34:56;101030.19;;;8.71;100.00
25430;BME280;13360;48.152;-1.788;2024-01-15T00:37:21;101031.00;;;8.71;100.00
25430;BME280;13360;48.152;-1.788;2024-01-15T00:39:47;101038.44;;;8.71;100.00
25430;BME280;13360;48.152;-1.788;2024-01-15T00:42:12;101036.78;;;8.70;100.00
25430;BME280;13360;48.152;-1.788;2024-01-15T00:44:37;101031.28;;;8.70;100.00
25430;BME280;13360;48.152;-1.788;2024-01-15T00:47:02;101043.94;;;8.71;100.00
25430;BME280;13360;48.152;-1.788;2024-01-15T00:49:28;101032.94;;;8.71;100.00
25430;BME280;13360;48.152;-1.788;2024-01-15T00:51:53;101028.53;;;8.70;100.00
25430;BME280;13360;48.152;-1.788;2024-01-15T00:54:19;101028.25;;;8.71;100.00
25430;BME280;13360;48.152;-1.788;2024-01-15T00:56:44;101025.78;;;8.70;100.00
25430;BME280;13360;48.152;-1.788;2024-01-15T00:59:09;101034.31;;;8.68;100.00
25430;BME280;13360;48.152;-1.788;2024-01-15T01:01:35;101031.56;;;8.68;100.00
25430;BME280;13360;48.152;-1.788;2024-01-15T01:04:00;101038.72;;;8.69;100.00
25430;BME280;13360;48.152;-1.788;2024-01-15T01:06:26;101036.78;;;8.70;100.00
25430;BME280;13360;48.152;-1.788;2024-01-15T01:08:51;101012.00;;;8.70;100.00
25430;BME280;13360;48.152;-1.788;2024-01-15T01:11:16;101008.44;;;8.69;100.00
25430;BME280;13360;48.152;-1.788;2024-01-15T01:13:42;101006.50;;;8.70;100.00
25430;BME280;13360;48.152;-1.788;2024-01-15T01:16:07;101010.09;;;8.70;100.00
25430;BME280;13360;48.152;-1.788;2024-01-15T01:18:32;101005.41;;;8.71;100.00
25430;BME280;13360;48.152;-1.788;2024-01-15T01:20:57;101005.41;;;8.71;100.00
25430;BME280;13360;48.152;-1.788;2024-01-15T01:23:23;100998.25;;;8.70;100.00
25430;BME280;13360;48.152;-1.788;2024-01-15T01:25:48;101010.91;;;8.71;100.00
25430;BME280;13360;48.152;-1.788;2024-01-15T01:28:13;101004.56;;;8.70;100.00
25430;BME280;13360;48.152;-1.788;2024-01-15T01:30:38;101005.41;;;8.71;100.00
25430;BME280;13360;48.152;-1.788;2024-01-15T01:33:04;101004.56;;;8.70;100.00
25430;BME280;13360;48.152;-1.788;2024-01-15T01:35:29;101005.41;;;8.71;100.00
25430;BME280;13360;48.152;-1.788;2024-01-15T01:37:55;101002.09;;;8.69;100.00
25430;BME280;13360;48.152;-1.788;2024-01-15T01:40:20;101004.84;;;8.69;100.00
25430;BME280;13360;48.152;-1.788;2024-01-15T01:42:45;100997.41;;;8.69;100.00
25430;BME280;13360;48.152;-1.788;2024-01-15T01:45:10;100993.56;;;8.70;100.00
25430;BME280;13360;48.152;-1.788;2024-01-15T01:47:36;100983.38;;;8.71;100.00
25430;BME280;13360;48.152;-1.788;2024-01-15T01:50:02;100983.38;;;8.71;100.00
25430;BME280;13360;48.152;-1.788;2024-01-15T01:52:27;100975.09;;;8.71;100.00
25430;BME280;13360;48.152;-1.788;2024-01-15T01:54:52;100981.72;;;8.70;100.00
25430;BME280;13360;48.152;-1.788;2024-01-15T01:57:18;100980.63;;;8.71;100.00
25430;BME280;13360;48.152;-1.788;2024-01-15T01:59:44;100976.22;;;8.70;100.00
25430;BME280;13360;48.152;-1.788;2024-01-15T02:02:10;100988.34;;;8.69;100.00
25430;BME280;13360;48.152;-1.788;2024-01-15T02:04:36;100976.78;;;8.67;100.00
25430;BME280;13360;48.152;-1.788;2024-01-15T02:07:01;100986.97;;;8.66;100.00
25430;BME280;13360;48.152;-1.788;2024-01-15T02:09:27;100988.59;;;8.67;100.00
25430;BME280;13360;48.152;-1.788;2024-01-15T02:11:52;100987.78;;;8.67;100.00
25430;BME280;13360;48.152;-1.788;2024-01-15T02:14:18;100988.09;;;8.60;100.00
25430;BME280;13360;48.152;-1.788;2024-01-15T02:16:43;100995.75;;;8.68;100.00
25430;BME280;13360;48.152;-1.788;2024-01-15T02:19:14;100988.34;;;8.69;100.00
25430;BME280;13360;48.152;-1.788;2024-01-15T02:21:39;100985.56;;;8.69;100.00
25430;BME280;13360;48.152;-1.788;2024-01-15T02:24:05;100984.75;;;8.68;100.00
25430;BME280;13360;48.152;-1.788;2024-01-15T02:26:30;100986.41;;;8.69;100.00
25430;BME280;13360;48.152;-1.788;2024-01-15T02:28:55;100998.25;;;8.70;100.00
25430;BME280;13360;48.152;-1.788;2024-01-15T02:31:20;100982.81;;;8.69;100.00
25430;BME280;13360;48.152;-1.788;2024-01-15T02:33:46;100985.28;;;8.70;100.00
25430;BME280;13360;48.152;-1.788;2024-01-15T02:36:11;100979.25;;;8.68;100.00
25430;BME280;13360;48.152;-1.788;2024-01-15T02:38:36;100979.25;;;8.68;100.00
25430;BME280;13360;48.152;-1.788;2024-01-15T02:41:02;100974.28;;;8.65;100.00
25430;BME280;13360;48.152;-1.788;2024-01-15T02:43:27;100986.69;;;8.68;100.00
25430;BME280;13360;48.152;-1.788;2024-01-15T02:45:52;100993.00;;;8.68;100.00
25430;BME280;13360;48.152;-1.788;2024-01-15T02:48:17;100989.44;;;8.68;100.00
25430;BME280;13360;48.152;-1.788;2024-01-15T02:50:42;100991.38;;;8.67;100.00
25430;BME280;13360;48.152;-1.788;2024-01-15T02:53:08;100992.19;;;8.68;100.00
25430;BME280;13360;48.152;-1.788;2024-01-15T02:55:33;101004.84;;;8.69;100.00
25430;BME280;13360;48.152;-1.788;2024-01-15T02:57:58;100994.38;;;8.71;100.00
25430;BME280;13360;48.152;-1.788;2024-01-15T03:00:24;100999.06;;;8.70;100.00
25430;BME280;13360;48.152;-1.788;2024-01-15T03:02:50;100987.22;;;8.70;100.00
25430;BME280;13360;48.152;-1.788;2024-01-15T03:05:15;100992.72;;;8.70;100.00
25430;BME280;13360;48.152;-1.788;2024-01-15T03:07:40;100999.06;;;8.70;100.00
25430;BME280;13360;48.152;-1.788;2024-01-15T03:10:06;100989.69;;;8.71;100.00
25430;BME280;13360;48.152;-1.788;2024-01-15T03:12:31;100996.59;;;8.69;100.00
25430;BME280;13360;48.152;-1.788;2024-01-15T03:14:56;101003.75;;;8.70;100.00
25430;BME280;13360;48.152;-1.788;2024-01-15T03:17:22;100996.59;;;8.69;100.00
25430;BME280;13360;48.152;-1.788;2024-01-15T03:19:47;100992.72;;;8.70;100.00
25430;BME280;13360;48.152;-1.788;2024-01-15T03:22:12;100985.84;;;8.67;100.00
25430;BME280;13360;48.152;-1.788;2024-01-15T03:24:37;100984.75;;;8.68;100.00
25430;BME280;13360;48.152;-1.788;2024-01-15T03:27:03;100975.66;;;8.68;100.00
25430;BME280;13360;48.152;-1.788;2024-01-15T03:29:28;100987.22;;;8.70;100.00
25430;BME280;13360;48.152;-1.788;2024-01-15T03:31:53;100973.19;;;8.71;100.00
25430;BME280;13360;48.152;-1.788;2024-01-15T03:34:18;100975.09;;;8.71;100.00
25430;BME280;13360;48.152;-1.788;2024-01-15T03:36:44;100975.94;;;8.71;100.00
25430;BME280;13360;48.152;-1.788;2024-01-15T03:39:09;100969.88;;;8.69;100.00
25430;BME280;13360;48.152;-1.788;2024-01-15T03:41:34;100969.88;;;8.69;100.00
25430;BME280;13360;48.152;-1.788;2024-01-15T03:43:59;100977.31;;;8.69;100.00
25430;BME280;13360;48.152;-1.788;2024-01-15T03:46:25;100974.56;;;8.69;100.00
25430;BME280;13360;48.152;-1.788;2024-01-15T03:48:50;100972.63;;;8.69;100.00
25430;BME280;13360;48.152;-1.788;2024-01-15T03:51:17;100966.31;;;8.69;100.00
25430;BME280;13360;48.152;-1.788;2024-01-15T03:53:42;100969.88;;;8.69;100.00
25430;BME280;13360;48.152;-1.788;2024-01-15T03:56:07;100969.06;;;8.69;100.00
25430;BME280;13360;48.152;-1.788;2024-01-15T03:58:32;100969.06;;;8.69;100.00
25430;BME280;13360;48.152;-1.788;2024-01-15T04:00:57;100962.72;;;8.68;100.00
25430;BME280;13360;48.152;-1.788;2024-01-15T04:03:23;100959.69;;;8.70;100.00
25430;BME280;13360;48.152;-1.788;2024-01-15T04:05:48;100953.63;;;8.68;100.00
25430;BME280;13360;48.152;-1.788;2024-01-15T04:08:13;100955.56;;;8.67;100.00
25430;BME280;13360;48.152;-1.788;2024-01-15T04:10:38;100946.47;;;8.67;100.00
25430;BME280;13360;48.152;-1.788;2024-01-15T04:13:03;100950.06;;;8.67;100.00
25430;BME280;13360;48.152;-1.788;2024-01-15T04:15:29;100948.13;;;8.68;100.00
25430;BME280;13360;48.152;-1.788;2024-01-15T04:17:54;100949.78;;;8.69;100.00
25430;BME280;13360;48.152;-1.788;2024-01-15T04:20:19;100945.38;;;8.68;100.00
25430;BME280;13360;48.152;-1.788;2024-01-15T04:22:44;100942.06;;;8.66;100.00
25430;BME280;13360;48.152;-1.788;2024-01-15T04:25:10;100949.22;;;8.67;100.00
25430;BME280;13360;48.152;-1.788;2024-01-15T04:27:35;100954.47;;;8.68;100.00
25430;BME280;13360;48.152;-1.788;2024-01-15T04:30:00;100952.00;;;8.67;100.00
25430;BME280;13360;48.152;-1.788;2024-01-15T04:32:25;100945.94;;;8.65;100.00
25430;BME280;13360;48.152;-1.788;2024-01-15T04:34:51;100949.22;;;8.67;100.00
25430;BME280;13360;48.152;-1.788;2024-01-15T04:37:16;100944.56;;;8.67;100.00
25430;BME280;13360;48.152;-1.788;2024-01-15T04:39:41;100943.72;;;8.67;100.00
25430;BME280;13360;48.152;-1.788;2024-01-15T04:42:06;100934.38;;;8.68;100.00
25430;BME280;13360;48.152;-1.788;2024-01-15T04:44:31;100930.25;;;8.65;100.00
25430;BME280;13360;48.152;-1.788;2024-01-15T04:46:57;100926.66;;;8.65;100.00
25430;BME280;13360;48.152;-1.788;2024-01-15T04:49:22;100935.75;;;8.65;100.00
25430;BME280;13360;48.152;-1.788;2024-01-15T04:51:47;100938.22;;;8.67;100.00
25430;BME280;13360;48.152;-1.788;2024-01-15T04:54:12;100936.56;;;8.66;100.00
25430;BME280;13360;48.152;-1.788;2024-01-15T04:56:38;100937.69;;;8.65;100.00
25430;BME280;13360;48.152;-1.788;2024-01-15T04:59:03;100940.44;;;8.65;100.00
25430;BME280;13360;48.152;-1.788;2024-01-15T05:01:31;100938.50;;;8.65;100.00
25430;BME280;13360;48.152;-1.788;2024-01-15T05:03:57;100935.75;;;8.65;100.00
25430;BME280;13360;48.152;-1.788;2024-01-15T05:06:22;100948.41;;;8.66;100.00
25430;BME280;13360;48.152;-1.788;2024-01-15T05:08:48;100936.56;;;8.66;100.00
25430;BME280;13360;48.152;-1.788;2024-01-15T05:11:13;100942.06;;;8.66;100.00
25430;BME280;13360;48.152;-1.788;2024-01-15T05:13:38;100945.94;;;8.65;100.00
25430;BME280;13360;48.152;-1.788;2024-01-15T05:16:03;100947.59;;;8.66;100.00
25430;BME280;13360;48.152;-1.788;2024-01-15T05:18:29;100949.22;;;8.67;100.00
25430;BME280;13360;48.152;-1.788;2024-01-15T05:20:54;100943.72;;;8.67;100.00
25430;BME280;13360;48.152;-1.788;2024-01-15T05:23:19;100936.56;;;8.66;100.00
25430;BME280;13360;48.152;-1.788;2024-01-15T05:25:45;100931.06;;;8.66;100.00
25430;BME280;13360;48.152;-1.788;2024-01-15T05:28:10;100931.88;;;8.66;100.00
25430;BME280;13360;48.152;-1.788;2024-01-15T05:30:35;100922.81;;;8.66;100.00
25430;BME280;13360;48.152;-1.788;2024-01-15T05:33:00;100914.81;;;8.64;100.00
25430;BME280;13360;48.152;-1.788;2024-01-15T05:35:26;100904.09;;;8.63;100.00
25430;BME280;13360;48.152;-1.788;2024-01-15T05:37:51;100909.31;;;8.64;100.00
25430;BME280;13360;48.152;-1.788;2024-01-15T05:40:16;100903.00;;;8.64;100.00
25430;BME280;13360;48.152;-1.788;2024-01-15T05:42:42;100905.19;;;8.62;100.00
25430;BME280;13360;48.152;-1.788;2024-01-15T05:45:07;100916.75;;;8.64;100.00
25430;BME280;13360;48.152;-1.788;2024-01-15T05:47:32;100918.97;;;8.62;100.00
25430;BME280;13360;48.152;-1.788;2024-01-15T05:49:58;100905.75;;;8.64;100.00
25430;BME280;13360;48.152;-1.788;2024-01-15T05:52:23;100901.34;;;8.63;100.00
25430;BME280;13360;48.152;-1.788;2024-01-15T05:54:49;100903.28;;;8.62;100.00
25430;BME280;13360;48.152;-1.788;2024-01-15T05:57:14;100898.59;;;8.63;100.00
25430;BME280;13360;48.152;-1.788;2024-01-15T05:59:40;100898.59;;;8.63;100.00
25430;BME280;13360;48.152;-1.788;2024-01-15T06:02:05;100897.75;;;8.62;100.00
25430;BME280;13360;48.152;-1.788;2024-01-15T06:04:30;100899.97;;;8.60;100.00
25430;BME280;13360;48.152;-1.788;2024-01-15T06:06:55;100898.59;;;8.58;100.00
25430;BME280;13360;48.152;-1.788;2024-01-15T06:09:21;100895.56;;;8.59;100.00
25430;BME280;13360;48.152;-1.788;2024-01-15T06:11:46;100895.84;;;8.58;100.00
25430;BME280;13360;48.152;-1.788;2024-01-15T06:14:11;100901.06;;;8.59;100.00
25430;BME280;13360;48.152;-1.788;2024-01-15T06:16:36;100897.50;;;8.59;100.00
25430;BME280;13360;48.152;-1.788;2024-01-15T06:19:02;100907.69;;;8.58;100.00
25430;BME280;13360;48.152;-1.788;2024-01-15T06:21:28;100910.72;;;8.62;100.00
25430;BME280;13360;48.152;-1.788;2024-01-15T06:23:53;100915.09;;;8.63;100.00
25430;BME280;13360;48.152;-1.788;2024-01-15T06:26:18;100917.03;;;8.62;100.00
25430;BME280;13360;48.152;-1.788;2024-01-15T06:28:43;100917.31;;;8.61;100.00
25430;BME280;13360;48.152;-1.788;2024-01-15T06:31:08;100918.97;;;8.62;100.00
25430;BME280;13360;48.152;-1.788;2024-01-15T06:33:34;100920.06;;;8.61;100.00
25430;BME280;13360;48.152;-1.788;2024-01-15T06:35:59;100917.31;;;8.61;100.00
25430;BME280;13360;48.152;-1.788;2024-01-15T06:38:24;100926.69;;;8.60;100.00
25430;BME280;13360;48.152;-1.788;2024-01-15T06:40:50;100931.38;;;8.59;100.00
25430;BME280;13360;48.152;-1.788;2024-01-15T06:43:16;100932.47;;;8.58;100.00
25430;BME280;13360;48.152;-1.788;2024-01-15T06:45:42;100930.81;;;8.52;100.00
25430;BME280;13360;48.152;-1.788;2024-01-15T06:48:07;100937.44;;;8.56;100.00
25430;BME280;13360;48.152;-1.788;2024-01-15T06:50:33;100936.88;;;8.59;100.00
25430;BME280;13360;48.152;-1.788;2024-01-15T06:52:58;100924.50;;;8.57;100.00
25430;BME280;13360;48.152;-1.788;2024-01-15T06:55:23;100918.72;;;8.58;100.00
25430;BME280;13360;48.152;-1.788;2024-01-15T06:57:49;100924.50;;;8.57;100.00
25430;BME280;13360;48.152;-1.788;2024-01-15T07:00:14;100926.13;;;8.58;100.00
25430;BME280;13360;48.152;-1.788;2024-01-15T07:02:39;100936.03;;;8.59;100.00
25430;BME280;13360;48.152;-1.788;2024-01-15T07:05:04;100926.69;;;8.60;100.00
25430;BME280;13360;48.152;-1.788;2024-01-15T07:07:30;100940.44;;;8.60;100.00
25430;BME280;13360;48.152;-1.788;2024-01-15T07:09:55;100938.81;;;8.59;100.00
25430;BME280;13360;48.152;-1.788;2024-01-15T07:12:20;100944.31;;;8.59;100.00
25430;BME280;13360;48.152;-1.788;2024-01-15T07:14:46;100931.66;;;8.58;100.00
25430;BME280;13360;48.152;-1.788;2024-01-15T07:17:11;100949.00;;;8.58;100.00
25430;BME280;13360;48.152;-1.788;2024-01-15T07:19:36;100939.63;;;8.59;100.00
25430;BME280;13360;48.152;-1.788;2024-01-15T07:22:01;100943.19;;;8.60;100.00
25430;BME280;13360;48.152;-1.788;2024-01-15T07:24:27;100950.34;;;8.61;100.00
25430;BME280;13360;48.152;-1.788;2024-01-15T07:26:52;100954.22;;;8.60;100.00
25430;BME280;13360;48.152;-1.788;2024-01-15T07:29:17;100949.25;;;8.62;100.00
25430;BME280;13360;48.152;-1.788;2024-01-15T07:31:51;100945.94;;;8.65;100.00
25430;BME280;13360;48.152;-1.788;2024-01-15T07:34:17;100942.06;;;8.66;100.00
25430;BME280;13360;48.152;-1.788;2024-01-15T07:36:45;100942.06;;;8.66;100.00
25430;BME280;13360;48.152;-1.788;2024-01-15T07:39:11;100937.69;;;8.65;100.00
25430;BME280;13360;48.152;-1.788;2024-01-15T07:41:36;100945.94;;;8.65;100.00
25430;BME280;13360;48.152;-1.788;2024-01-15T07:44:01;100948.41;;;8.66;100.00
25430;BME280;13360;48.152;-1.788;2024-01-15T07:46:27;100950.34;;;8.66;100.00
25430;BME280;13360;48.152;-1.788;2024-01-15T07:48:52;100943.19;;;8.65;100.00
25430;BME280;13360;48.152;-1.788;2024-01-15T07:51:21;100938.78;;;8.64;100.00
25430;BME280;13360;48.152;-1.788;2024-01-15T07:53:46;100942.09;;;8.61;100.00
25430;BME280;13360;48.152;-1.788;2024-01-15T07:56:12;100944.31;;;8.59;100.00
25430;BME280;13360;48.152;-1.788;2024-01-15T07:58:37;100942.09;;;8.61;100.00
25430;BME280;13360;48.152;-1.788;2024-01-15T08:01:02;100953.38;;;8.59;100.00
25430;BME280;13360;48.152;-1.788;2024-01-15T08:03:27;100955.03;;;8.60;100.00
25430;BME280;13360;48.152;-1.788;2024-01-15T08:05:53;100954.22;;;8.60;100.00
25430;BME280;13360;48.152;-1.788;2024-01-15T08:08:19;100958.06;;;8.59;100.00
25430;BME280;13360;48.152;-1.788;2024-01-15T08:10:46;100955.88;;;8.61;100.00
25430;BME280;13360;48.152;-1.788;2024-01-15T08:13:11;100958.63;;;8.61;100.00
25430;BME280;13360;48.152;-1.788;2024-01-15T08:15:36;100954.22;;;8.60;100.00
25430;BME280;13360;48.152;-1.788;2024-01-15T08:18:02;100960.81;;;8.59;100.00
25430;BME280;13360;48.152;-1.788;2024-01-15T08:20:27;100966.06;;;8.60;100.00
25430;BME280;13360;48.152;-1.788;2024-01-15T08:22:53;100981.75;;;8.60;100.00
25430;BME280;13360;48.152;-1.788;2024-01-15T08:25:18;100977.06;;;8.60;100.00
25430;BME280;13360;48.152;-1.788;2024-01-15T08:27:43;100993.31;;;8.62;100.00
25430;BME280;13360;48.152;-1.788;2024-01-15T08:30:09;100996.06;;;8.62;100.00
25430;BME280;13360;48.152;-1.788;2024-01-15T08:32:34;101003.75;;;8.65;100.00
25430;BME280;13360;48.152;-1.788;2024-01-15T08:35:05;101015.59;;;8.65;100.00
25430;BME280;13360;48.152;-1.788;2024-01-15T08:37:31;101002.66;;;8.61;100.00
25430;BME280;13360;48.152;-1.788;2024-01-15T08:39:56;101004.59;;;8.60;100.00
25430;BME280;13360;48.152;-1.788;2024-01-15T08:42:21;101008.75;;;8.58;100.00
25430;BME280;13360;48.152;-1.788;2024-01-15T08:44:46;100989.19;;;8.59;100.00
25430;BME280;13360;48.152;-1.788;2024-01-15T08:47:12;100987.53;;;8.53;100.00
25430;BME280;13360;48.152;-1.788;2024-01-15T08:49:37;100990.84;;;8.50;100.00
25430;BME280;13360;48.152;-1.788;2024-01-15T08:52:02;100988.38;;;8.38;100.00
25430;BME280;13360;48.152;-1.788;2024-01-15T08:54:27;100982.31;;;8.41;100.00
25430;BME280;13360;48.152;-1.788;2024-01-15T08:56:52;100985.06;;;8.41;100.00
25430;BME280;13360;48.152;-1.788;2024-01-15T08:59:18;100991.97;;;8.39;100.00
25430;BME280;13360;48.152;-1.788;2024-01-15T09:01:49;100988.94;;;8.40;100.00
25430;BME280;13360;48.152;-1.788;2024-01-15T09:04:14;100977.34;;;8.43;100.00
25430;BME280;13360;48.152;-1.788;2024-01-15T09:06:40;100983.94;;;8.47;100.00
25430;BME280;13360;48.152;-1.788;2024-01-15T09:09:05;100975.13;;;8.50;100.00
25430;BME280;13360;48.152;-1.788;2024-01-15T09:11:31;100980.09;;;8.53;100.00
25430;BME280;13360;48.152;-1.788;2024-01-15T09:13:57;100991.13;;;8.59;100.00
25430;BME280;13360;48.152;-1.788;2024-01-15T09:16:22;101010.63;;;8.67;100.00
25430;BME280;13360;48.152;-1.788;2024-01-15T09:18:48;101040.09;;;8.82;100.00
25430;BME280;13360;48.152;-1.788;2024-01-15T09:21:13;101042.28;;;9.00;100.00
25430;BME280;13360;48.152;-1.788;2024-01-15T09:23:38;101042.78;;;9.18;100.00
25430;BME280;13360;48.152;-1.788;2024-01-15T09:26:03;101049.34;;;9.32;100.00
25430;BME280;13360;48.152;-1.788;2024-01-15T09:28:29;101049.28;;;9.47;100.00
25430;BME280;13360;48.152;-1.788;2024-01-15T09:30:54;101058.06;;;9.64;100.00
25430;BME280;13360;48.152;-1.788;2024-01-15T09:33:19;101064.03;;;9.76;100.00
25430;BME280;13360;48.152;-1.788;2024-01-15T09:35:44;101056.31;;;9.84;100.00
25430;BME280;13360;48.152;-1.788;2024-01-15T09:38:10;101053.84;;;9.82;100.00
25430;BME280;13360;48.152;-1.788;2024-01-15T09:40:35;101057.91;;;9.90;100.00
25430;BME280;13360;48.152;-1.788;2024-01-15T09:43:03;101048.28;;;9.87;100.00
25430;BME280;13360;48.152;-1.788;2024-01-15T09:45:28;101048.56;;;9.86;100.00
25430;BME280;13360;48.152;-1.788;2024-01-15T09:47:54;101021.59;;;9.72;100.00
25430;BME280;13360;48.152;-1.788;2024-01-15T09:50:19;100971.59;;;9.35;100.00
25430;BME280;13360;48.152;-1.788;2024-01-15T09:52:45;100960.63;;;9.25;100.00
25430;BME280;13360;48.152;-1.788;2024-01-15T09:55:10;100990.88;;;9.35;100.00
25430;BME280;13360;48.152;-1.788;2024-01-15T09:57:36;101007.41;;;9.45;100.00
25430;BME280;13360;48.152;-1.788;2024-01-15T10:00:02;100983.16;;;9.37;100.00
25430;BME280;13360;48.152;-1.788;2024-01-15T10:02:29;100967.72;;;9.36;100.00
25430;BME280;13360;48.152;-1.788;2024-01-15T10:04:55;100949.09;;;9.12;100.00
25430;BME280;13360;48.152;-1.788;2024-01-15T10:07:20;100936.44;;;9.06;100.00
25430;BME280;13360;48.152;-1.788;2024-01-15T10:09:47;100958.44;;;9.22;100.00
25430;BME280;13360;48.152;-1.788;2024-01-15T10:12:12;100947.94;;;9.24;100.00
25430;BME280;13360;48.152;-1.788;2024-01-15T10:14:37;100954.53;;;9.28;100.00
25430;BME280;13360;48.152;-1.788;2024-01-15T10:17:13;100946.03;;;9.24;100.00
25430;BME280;13360;48.152;-1.788;2024-01-15T10:19:39;100957.00;;;9.29;100.00
25430;BME280;13360;48.152;-1.788;2024-01-15T10:22:06;100945.38;;;9.42;100.00
25430;BME280;13360;48.152;-1.788;2024-01-15T10:24:31;100932.22;;;9.29;100.00
25430;BME280;13360;48.152;-1.788;2024-01-15T10:27:06;100931.41;;;9.24;100.00
25430;BME280;13360;48.152;-1.788;2024-01-15T10:29:32;100936.81;;;9.44;100.00
25430;BME280;13360;48.152;-1.788;2024-01-15T10:31:57;100931.28;;;9.49;100.00
25430;BME280;13360;48.152;-1.788;2024-01-15T10:34:23;100939.63;;;9.39;100.00
25430;BME280;13360;48.152;-1.788;2024-01-15T10:36:49;100924.97;;;9.43;100.00
25430;BME280;13360;48.152;-1.788;2024-01-15T10:39:20;100915.09;;;9.37;100.00
25430;BME280;13360;48.152;-1.788;2024-01-15T10:41:45;100920.91;;;9.31;100.00
25430;BME280;13360;48.152;-1.788;2024-01-15T10:44:10;100924.81;;;9.20;100.00
25430;BME280;13360;48.152;-1.788;2024-01-15T10:46:35;100918.22;;;9.21;100.00
25430;BME280;13360;48.152;-1.788;2024-01-15T10:49:01;100919.50;;;9.33;100.00
25430;BME280;13360;48.152;-1.788;2024-01-15T10:51:27;100923.31;;;9.42;100.00
25430;BME280;13360;48.152;-1.788;2024-01-15T10:53:52;100919.22;;;9.40;100.00
25430;BME280;13360;48.152;-1.788;2024-01-15T10:56:18;100929.97;;;9.31;100.00
25430;BME280;13360;48.152;-1.788;2024-01-15T10:58:44;100923.03;;;9.44;100.00
25430;BME280;13360;48.152;-1.788;2024-01-15T11:01:10;100920.25;;;9.49;100.00
25430;BME280;13360;48.152;-1.788;2024-01-15T11:03:36;100923.03;;;9.44;100.00
25430;BME280;13360;48.152;-1.788;2024-01-15T11:06:01;100923.81;;;9.50;100.00
25430;BME280;13360;48.152;-1.788;2024-01-15T11:08:28;100907.59;;;9.43;100.00
25430;BME280;13360;48.152;-1.788;2024-01-15T11:10:54;100906.00;;;9.32;100.00
25430;BME280;13360;48.152;-1.788;2024-01-15T11:15:55;100908.06;;;9.55;100.00
25430;BME280;13360;48.152;-1.788;2024-01-15T11:18:21;100905.31;;;9.55;100.00
25430;BME280;13360;48.152;-1.788;2024-01-15T11:23:50;100898.38;;;9.58;100.00
25430;BME280;13360;48.152;-1.788;2024-01-15T11:26:29;100909.63;;;9.71;100.00
25430;BME280;13360;48.152;-1.788;2024-01-15T11:28:54;100905.22;;;9.70;100.00
25430;BME280;13360;48.152;-1.788;2024-01-15T11:31:25;100895.03;;;9.66;100.00
25430;BME280;13360;48.152;-1.788;2024-01-15T11:33:50;100897.50;;;9.67;100.00
25430;BME280;13360;48.152;-1.788;2024-01-15T11:36:16;100907.91;;;9.81;100.00
25430;BME280;13360;48.152;-1.788;2024-01-15T11:38:41;100889.25;;;9.67;100.00
25430;BME280;13360;48.152;-1.788;2024-01-15T11:41:15;100899.69;;;9.70;100.00
25430;BME280;13360;48.152;-1.788;2024-01-15T11:43:41;100900.16;;;9.83;100.00
25430;BME280;13360;48.152;-1.788;2024-01-15T11:46:08;100893.50;;;9.89;100.00
25430;BME280;13360;48.152;-1.788;2024-01-15T11:48:41;100894.97;;;9.76;100.00
25430;BME280;13360;48.152;-1.788;2024-01-15T11:51:07;100901.22;;;9.87;100.00
25430;BME280;13360;48.152;-1.788;2024-01-15T11:53:36;100896.28;;;9.84;100.00
25430;BME280;13360;48.152;-1.788;2024-01-15T11:56:03;100890.72;;;9.89;100.00
25430;BME280;13360;48.152;-1.788;2024-01-15T11:58:31;100870.94;;;9.82;100.00
25430;BME280;13360;48.152;-1.788;2024-01-15T12:00:56;100884.84;;;9.66;100.00
25430;BME280;13360;48.152;-1.788;2024-01-15T12:03:22;100880.78;;;9.54;100.00
25430;BME280;13360;48.152;-1.788;2024-01-15T12:05:48;100877.13;;;9.63;100.00
25430;BME280;13360;48.152;-1.788;2024-01-15T12:08:13;100870.00;;;9.57;100.00
25430;BME280;13360;48.152;-1.788;2024-01-15T12:10:38;100878.00;;;9.59;100.00
25430;BME280;13360;48.152;-1.788;2024-01-15T12:15:34;100873.56;;;9.63;100.00
25430;BME280;13360;48.152;-1.788;2024-01-15T12:18:01;100871.91;;;9.62;100.00
25430;BME280;13360;48.152;-1.788;2024-01-15T12:20:27;100871.66;;;9.58;100.00
25430;BME280;13360;48.152;-1.788;2024-01-15T12:22:53;100868.34;;;9.61;100.00
25430;BME280;13360;48.152;-1.788;2024-01-15T12:25:20;100874.19;;;9.50;100.00
25430;BME280;13360;48.152;-1.788;2024-01-15T12:27:45;100877.47;;;9.52;100.00
25430;BME280;13360;48.152;-1.788;2024-01-15T12:30:11;100876.06;;;9.59;100.00
25430;BME280;13360;48.152;-1.788;2024-01-15T12:32:37;100871.72;;;9.48;100.00
25430;BME280;13360;48.152;-1.788;2024-01-15T12:35:02;100870.03;;;9.52;100.00
25430;BME280;13360;48.152;-1.788;2024-01-15T12:37:27;100867.22;;;9.57;100.00
25430;BME280;13360;48.152;-1.788;2024-01-15T12:39:54;100864.75;;;9.56;100.00